Sultan Azlan Shah Airport Ipoh MY
ICAO: WMKI
IATA:
Category: Medium
Scheduled Services:

Elevation: 130 ft
TransAlt. 11000 ft.

Airport Communications:
IPOH TWR:122.1

WMKI Zoom In..

If you have problems with the map follow the link
https://www.worldairports.se/pages/airport.php?
ICAO=WMKI

Runways:

(A) RW 04 length 6562 ft width 148 ft
ILS 110.50 / hdg 41

(B) RW 22 length 6562 ft width 148 ft
---- / hdg 221

Location; WMKI
Day. 14 / Time. 08.00 Zulu
* QNH: 1007
* Temperature: 25° c. 77°f.
* Wind from: 070° Speed 03 kn.
Dewpoint: 24° c.
Visibility: 1000 m.
Clouds: Few 1600 ft.
Clouds: Scattered 2600 ft.
Clouds: Broken 26000 ft.

WMKI 140800Z 07003KT 040V100 1000 +TSRA FEW016CB SCT026 BKN260 25/24 Q1007


Wind From 070°
Speed 03 kn.

 
 
jpsmedia worldairports.se 2019   terms of use